^^
Paulen-Weather Station Historical Data
Daily Summary for July 05, 2022 Units:  Both    English   Metric
Daily Weekly Monthly Yearly Custom
  High: Low: Average:
Temperature: 66.2 °F /  19 °C 53.6 °F /  12 °C 58.1 °F /  14.5 °C
Dew Point: 55.4 °F /  13 °C 50 °F /  10 °C 52.7 °F /  11.5 °C
Humidity: 93% 62% 83%
Wind Speed: 18.6mph /  30km/h - 7.3mph /  11.8km/h
Wind Gust: 15.5mph /  25km/h - -
Wind- - WSW
Pressure: 29.9 in /  1013.58 hPa 29.8 in /  1010.26 hPa -
Precipitation: 0 in /  0 mm    
Historical Graphs
 
 
Tabular Data for July 05, 2022
Time Temperature Dew Point Pressure Wind Wind Speed Wind Gust Humidity Rainfall Rate (Hourly) solar
00:04 55.4 °F /  13 °C 51.8 °F /  11 °C 29.8in /  1010.4hPa W 3.7mph /  6km/h 3.1mph /  5km/h 90% 0.01in /  0.2mm 0 W/m2
00:09 55.4 °F /  13 °C 51.8 °F /  11 °C 29.8in /  1010.43hPa WSW 5mph /  8km/h 3.7mph /  6km/h 91% 0.01in /  0.2mm 0 W/m2
00:14 55.4 °F /  13 °C 51.8 °F /  11 °C 29.8in /  1010.36hPa W 5mph /  8km/h 3.7mph /  6km/h 91% 0.01in /  0.2mm 0 W/m2
00:19 55.4 °F /  13 °C 51.8 °F /  11 °C 29.8in /  1010.36hPa W 5mph /  8km/h 3.7mph /  6km/h 91% 0.01in /  0.2mm 0 W/m2
00:24 55.4 °F /  13 °C 51.8 °F /  11 °C 29.8in /  1010.36hPa WSW 5.6mph /  9km/h 4.3mph /  7km/h 91% 0.01in /  0.2mm 0 W/m2
00:29 55.4 °F /  13 °C 51.8 °F /  11 °C 29.8in /  1010.3hPa WSW 5.6mph /  9km/h 4.3mph /  7km/h 92% 0.01in /  0.2mm 0 W/m2
00:34 55.4 °F /  13 °C 51.8 °F /  11 °C 29.8in /  1010.33hPa WSW 6.2mph /  10km/h 5.6mph /  9km/h 92% 0.01in /  0.2mm 0 W/m2
00:39 55.4 °F /  13 °C 51.8 °F /  11 °C 29.8in /  1010.33hPa SW 4.3mph /  7km/h 3.1mph /  5km/h 92% 0.01in /  0.2mm 0 W/m2
00:44 53.6 °F /  12 °C 51.8 °F /  11 °C 29.8in /  1010.33hPa WSW 5.6mph /  9km/h 3.7mph /  6km/h 92% 0.01in /  0.2mm 0 W/m2
00:49 53.6 °F /  12 °C 51.8 °F /  11 °C 29.8in /  1010.33hPa WSW 7.5mph /  12km/h 5mph /  8km/h 92% 0.01in /  0.2mm 0 W/m2
00:54 53.6 °F /  12 °C 51.8 °F /  11 °C 29.8in /  1010.36hPa W 5.6mph /  9km/h 4.3mph /  7km/h 92% 0.01in /  0.2mm 0 W/m2
00:59 53.6 °F /  12 °C 51.8 °F /  11 °C 29.8in /  1010.4hPa W 6.2mph /  10km/h 4.3mph /  7km/h 92% 0.01in /  0.2mm 0 W/m2
01:04 53.6 °F /  12 °C 51.8 °F /  11 °C 29.8in /  1010.36hPa WSW 3.7mph /  6km/h 3.7mph /  6km/h 92% 0in /  0mm 0 W/m2
01:09 53.6 °F /  12 °C 51.8 °F /  11 °C 29.8in /  1010.4hPa W 5mph /  8km/h 4.3mph /  7km/h 92% 0in /  0mm 0 W/m2
01:14 53.6 °F /  12 °C 51.8 °F /  11 °C 29.8in /  1010.4hPa WSW 4.3mph /  7km/h 3.7mph /  6km/h 92% 0in /  0mm 0 W/m2
01:19 53.6 °F /  12 °C 51.8 °F /  11 °C 29.8in /  1010.36hPa WSW 5mph /  8km/h 5mph /  8km/h 92% 0in /  0mm 0 W/m2
01:24 53.6 °F /  12 °C 51.8 °F /  11 °C 29.8in /  1010.26hPa W 5mph /  8km/h 3.7mph /  6km/h 92% 0in /  0mm 0 W/m2
01:29 53.6 °F /  12 °C 51.8 °F /  11 °C 29.8in /  1010.3hPa WSW 5.6mph /  9km/h 3.1mph /  5km/h 92% 0in /  0mm 0 W/m2
01:34 53.6 °F /  12 °C 51.8 °F /  11 °C 29.8in /  1010.33hPa W 6.2mph /  10km/h 4.3mph /  7km/h 92% 0in /  0mm 0 W/m2
01:39 53.6 °F /  12 °C 51.8 °F /  11 °C 29.8in /  1010.4hPa WSW 4.3mph /  7km/h 4.3mph /  7km/h 92% 0in /  0mm 0 W/m2
01:44 53.6 °F /  12 °C 51.8 °F /  11 °C 29.8in /  1010.43hPa WSW 6.8mph /  11km/h 5mph /  8km/h 93% 0in /  0mm 0 W/m2
01:49 53.6 °F /  12 °C 51.8 °F /  11 °C 29.8in /  1010.46hPa WSW 5mph /  8km/h 3.1mph /  5km/h 93% 0in /  0mm 0 W/m2
01:54 53.6 °F /  12 °C 51.8 °F /  11 °C 29.8in /  1010.33hPa W 5mph /  8km/h 3.7mph /  6km/h 93% 0in /  0mm 0 W/m2
01:59 53.6 °F /  12 °C 51.8 °F /  11 °C 29.8in /  1010.36hPa W 6.2mph /  10km/h 4.3mph /  7km/h 93% 0in /  0mm 0 W/m2
02:04 53.6 °F /  12 °C 51.8 °F /  11 °C 29.8in /  1010.4hPa WSW 5.6mph /  9km/h 5.6mph /  9km/h 92% 0in /  0mm 0 W/m2
02:09 53.6 °F /  12 °C 51.8 °F /  11 °C 29.8in /  1010.33hPa W 5mph /  8km/h 4.3mph /  7km/h 92% 0in /  0mm 0 W/m2
02:14 53.6 °F /  12 °C 51.8 °F /  11 °C 29.8in /  1010.36hPa W 5.6mph /  9km/h 5mph /  8km/h 92% 0in /  0mm 0 W/m2
02:19 53.6 °F /  12 °C 51.8 °F /  11 °C 29.8in /  1010.43hPa WSW 5mph /  8km/h 3.7mph /  6km/h 92% 0in /  0mm 0 W/m2
02:24 53.6 °F /  12 °C 51.8 °F /  11 °C 29.8in /  1010.4hPa W 3.7mph /  6km/h 3.1mph /  5km/h 92% 0in /  0mm 0 W/m2
02:29 53.6 °F /  12 °C 51.8 °F /  11 °C 29.8in /  1010.46hPa WSW 5.6mph /  9km/h 3.7mph /  6km/h 92% 0in /  0mm 0 W/m2
02:34 53.6 °F /  12 °C 51.8 °F /  11 °C 29.8in /  1010.5hPa WSW 5mph /  8km/h 4.3mph /  7km/h 91% 0in /  0mm 0 W/m2
02:39 53.6 °F /  12 °C 51.8 °F /  11 °C 29.8in /  1010.53hPa SW 6.2mph /  10km/h 4.3mph /  7km/h 91% 0in /  0mm 0 W/m2
02:44 53.6 °F /  12 °C 51.8 °F /  11 °C 29.8in /  1010.63hPa WSW 5.6mph /  9km/h 4.3mph /  7km/h 91% 0in /  0mm 0 W/m2
02:49 53.6 °F /  12 °C 51.8 °F /  11 °C 29.8in /  1010.6hPa WSW 6.2mph /  10km/h 5mph /  8km/h 91% 0in /  0mm 0 W/m2
02:54 53.6 °F /  12 °C 51.8 °F /  11 °C 29.8in /  1010.63hPa SW 5.6mph /  9km/h 3.7mph /  6km/h 91% 0in /  0mm 0 W/m2
02:59 53.6 °F /  12 °C 51.8 °F /  11 °C 29.8in /  1010.63hPa WSW 6.8mph /  11km/h 4.3mph /  7km/h 91% 0in /  0mm 0 W/m2
03:04 53.6 °F /  12 °C 51.8 °F /  11 °C 29.8in /  1010.7hPa WSW 4.3mph /  7km/h 4.3mph /  7km/h 91% 0in /  0mm 0 W/m2
03:09 53.6 °F /  12 °C 51.8 °F /  11 °C 29.8in /  1010.67hPa WSW 5.6mph /  9km/h 4.3mph /  7km/h 92% 0in /  0mm 0 W/m2
03:14 53.6 °F /  12 °C 51.8 °F /  11 °C 29.8in /  1010.67hPa WSW 4.3mph /  7km/h 3.7mph /  6km/h 92% 0in /  0mm 0 W/m2
03:19 53.6 °F /  12 °C 51.8 °F /  11 °C 29.8in /  1010.67hPa WSW 5.6mph /  9km/h 4.3mph /  7km/h 92% 0in /  0mm 0 W/m2
03:24 53.6 °F /  12 °C 51.8 °F /  11 °C 29.8in /  1010.63hPa WSW 4.3mph /  7km/h 3.7mph /  6km/h 92% 0in /  0mm 0 W/m2
03:29 53.6 °F /  12 °C 51.8 °F /  11 °C 29.8in /  1010.6hPa SW 4.3mph /  7km/h 3.7mph /  6km/h 92% 0in /  0mm 0 W/m2
03:34 53.6 °F /  12 °C 51.8 °F /  11 °C 29.8in /  1010.6hPa WSW 5mph /  8km/h 4.3mph /  7km/h 92% 0in /  0mm 0 W/m2
03:39 53.6 °F /  12 °C 51.8 °F /  11 °C 29.8in /  1010.6hPa SW 4.3mph /  7km/h 3.1mph /  5km/h 92% 0in /  0mm 0 W/m2
03:44 53.6 °F /  12 °C 51.8 °F /  11 °C 29.8in /  1010.57hPa WSW 6.2mph /  10km/h 4.3mph /  7km/h 92% 0in /  0mm 0 W/m2
03:49 53.6 °F /  12 °C 51.8 °F /  11 °C 29.8in /  1010.67hPa WSW 6.2mph /  10km/h 5.6mph /  9km/h 92% 0in /  0mm 0 W/m2
03:54 53.6 °F /  12 °C 51.8 °F /  11 °C 29.8in /  1010.67hPa WSW 6.2mph /  10km/h 3.7mph /  6km/h 92% 0in /  0mm 0 W/m2
03:59 53.6 °F /  12 °C 51.8 °F /  11 °C 29.8in /  1010.67hPa WSW 6.2mph /  10km/h 5mph /  8km/h 92% 0in /  0mm 0 W/m2
04:04 53.6 °F /  12 °C 51.8 °F /  11 °C 29.8in /  1010.67hPa WSW 4.3mph /  7km/h 3.1mph /  5km/h 92% 0in /  0mm 0 W/m2
04:09 53.6 °F /  12 °C 51.8 °F /  11 °C 29.8in /  1010.67hPa SW 4.3mph /  7km/h 3.1mph /  5km/h 93% 0in /  0mm 0 W/m2
04:14 53.6 °F /  12 °C 51.8 °F /  11 °C 29.8in /  1010.7hPa WSW 5mph /  8km/h 3.7mph /  6km/h 93% 0in /  0mm 0 W/m2
04:19 53.6 °F /  12 °C 51.8 °F /  11 °C 29.8in /  1010.67hPa WSW 5mph /  8km/h 4.3mph /  7km/h 93% 0in /  0mm 0 W/m2
04:24 53.6 °F /  12 °C 51.8 °F /  11 °C 29.9in /  1010.74hPa WSW 6.8mph /  11km/h 5mph /  8km/h 93% 0in /  0mm 5 W/m2
04:29 53.6 °F /  12 °C 51.8 °F /  11 °C 29.9in /  1010.8hPa WSW 4.3mph /  7km/h 3.7mph /  6km/h 93% 0in /  0mm 7 W/m2
04:34 53.6 °F /  12 °C 51.8 °F /  11 °C 29.9in /  1010.8hPa WSW 4.3mph /  7km/h 3.1mph /  5km/h 93% 0in /  0mm 9 W/m2
04:39 53.6 °F /  12 °C 51.8 °F /  11 °C 29.9in /  1010.8hPa SSW 5mph /  8km/h 4.3mph /  7km/h 93% 0in /  0mm 11 W/m2
04:44 53.6 °F /  12 °C 51.8 °F /  11 °C 29.9in /  1010.84hPa WSW 7.5mph /  12km/h 4.3mph /  7km/h 92% 0in /  0mm 11 W/m2
04:49 53.6 °F /  12 °C 51.8 °F /  11 °C 29.9in /  1010.87hPa W 5.6mph /  9km/h 4.3mph /  7km/h 92% 0in /  0mm 12 W/m2
04:54 53.6 °F /  12 °C 51.8 °F /  11 °C 29.9in /  1010.9hPa W 4.3mph /  7km/h 3.7mph /  6km/h 92% 0in /  0mm 11 W/m2
04:59 53.6 °F /  12 °C 51.8 °F /  11 °C 29.9in /  1010.94hPa WSW 4.3mph /  7km/h 3.1mph /  5km/h 92% 0in /  0mm 12 W/m2
05:04 53.6 °F /  12 °C 51.8 °F /  11 °C 29.9in /  1010.97hPa WSW 4.3mph /  7km/h 3.1mph /  5km/h 92% 0in /  0mm 21 W/m2
05:09 55.4 °F /  13 °C 51.8 °F /  11 °C 29.9in /  1011.01hPa SW 5mph /  8km/h 5mph /  8km/h 92% 0in /  0mm 23 W/m2
05:14 55.4 °F /  13 °C 51.8 °F /  11 °C 29.9in /  1011.04hPa WSW 6.2mph /  10km/h 5mph /  8km/h 91% 0in /  0mm 16 W/m2
05:19 55.4 °F /  13 °C 51.8 °F /  11 °C 29.9in /  1011.07hPa WSW 5.6mph /  9km/h 5.6mph /  9km/h 91% 0in /  0mm 11 W/m2
05:24 55.4 °F /  13 °C 51.8 °F /  11 °C 29.9in /  1011.04hPa W 4.3mph /  7km/h 3.7mph /  6km/h 91% 0in /  0mm 12 W/m2
05:29 55.4 °F /  13 °C 51.8 °F /  11 °C 29.9in /  1011.04hPa WSW 4.3mph /  7km/h 3.7mph /  6km/h 91% 0in /  0mm 16 W/m2
05:34 55.4 °F /  13 °C 51.8 °F /  11 °C 29.9in /  1011.07hPa WSW 4.3mph /  7km/h 3.7mph /  6km/h 91% 0in /  0mm 19 W/m2
05:39 55.4 °F /  13 °C 51.8 °F /  11 °C 29.9in /  1011.11hPa W 3.7mph /  6km/h 2.5mph /  4km/h 91% 0in /  0mm 23 W/m2
05:44 55.4 °F /  13 °C 51.8 °F /  11 °C 29.9in /  1011.14hPa W 3.1mph /  5km/h 3.1mph /  5km/h 90% 0in /  0mm 25 W/m2
05:49 55.4 °F /  13 °C 51.8 °F /  11 °C 29.9in /  1011.14hPa W 3.7mph /  6km/h 2.5mph /  4km/h 90% 0in /  0mm 25 W/m2
05:54 53.6 °F /  12 °C 51.8 °F /  11 °C 29.9in /  1011.14hPa W 3.7mph /  6km/h 3.1mph /  5km/h 90% 0in /  0mm 25 W/m2
05:59 53.6 °F /  12 °C 51.8 °F /  11 °C 29.9in /  1011.14hPa WSW 3.1mph /  5km/h 1.9mph /  3km/h 90% 0in /  0mm 21 W/m2
06:04 53.6 °F /  12 °C 51.8 °F /  11 °C 29.9in /  1011.14hPa WNW 3.1mph /  5km/h 2.5mph /  4km/h 91% 0in /  0mm 19 W/m2
06:09 53.6 °F /  12 °C 51.8 °F /  11 °C 29.9in /  1011.11hPa WSW 3.1mph /  5km/h 1.9mph /  3km/h 91% 0in /  0mm 18 W/m2
06:14 53.6 °F /  12 °C 51.8 °F /  11 °C 29.9in /  1011.24hPa W 1.9mph /  3km/h 1.9mph /  3km/h 91% 0in /  0mm 23 W/m2
06:19 53.6 °F /  12 °C 51.8 °F /  11 °C 29.9in /  1011.21hPa W 2.5mph /  4km/h 1.9mph /  3km/h 91% 0in /  0mm 32 W/m2
06:24 53.6 °F /  12 °C 51.8 °F /  11 °C 29.9in /  1011.21hPa WSW 2.5mph /  4km/h 2.5mph /  4km/h 91% 0in /  0mm 39 W/m2
06:29 53.6 °F /  12 °C 51.8 °F /  11 °C 29.9in /  1011.24hPa WSW 3.1mph /  5km/h 3.1mph /  5km/h 91% 0in /  0mm 39 W/m2
06:34 53.6 °F /  12 °C 51.8 °F /  11 °C 29.9in /  1011.24hPa W 2.5mph /  4km/h 1.9mph /  3km/h 91% 0in /  0mm 37 W/m2
06:39 53.6 °F /  12 °C 51.8 °F /  11 °C 29.9in /  1011.24hPa W 3.1mph /  5km/h 1.9mph /  3km/h 91% 0in /  0mm 35 W/m2
06:44 53.6 °F /  12 °C 51.8 °F /  11 °C 29.9in /  1011.28hPa W 3.7mph /  6km/h 3.1mph /  5km/h 91% 0in /  0mm 37 W/m2
06:49 53.6 °F /  12 °C 51.8 °F /  11 °C 29.9in /  1011.28hPa W 3.1mph /  5km/h 1.9mph /  3km/h 91% 0in /  0mm 40 W/m2
06:54 53.6 °F /  12 °C 51.8 °F /  11 °C 29.9in /  1011.24hPa WSW 1.9mph /  3km/h 1.2mph /  2km/h 91% 0in /  0mm 44 W/m2
06:59 53.6 °F /  12 °C 51.8 °F /  11 °C 29.9in /  1011.31hPa WSW 3.1mph /  5km/h 2.5mph /  4km/h 91% 0in /  0mm 46 W/m2
07:04 53.6 °F /  12 °C 51.8 °F /  11 °C 29.9in /  1011.34hPa W 3.7mph /  6km/h 2.5mph /  4km/h 91% 0in /  0mm 49 W/m2
07:09 53.6 °F /  12 °C 51.8 °F /  11 °C 29.9in /  1011.38hPa W 2.5mph /  4km/h 1.9mph /  3km/h 91% 0in /  0mm 56 W/m2
07:14 53.6 °F /  12 °C 51.8 °F /  11 °C 29.9in /  1011.45hPa W 3.1mph /  5km/h 1.9mph /  3km/h 91% 0in /  0mm 56 W/m2
07:19 55.4 °F /  13 °C 51.8 °F /  11 °C 29.9in /  1011.45hPa W 3.7mph /  6km/h 3.1mph /  5km/h 91% 0in /  0mm 49 W/m2
07:24 55.4 °F /  13 °C 51.8 °F /  11 °C 29.9in /  1011.48hPa WSW 3.1mph /  5km/h 2.5mph /  4km/h 91% 0in /  0mm 62 W/m2
07:29 55.4 °F /  13 °C 51.8 °F /  11 °C 29.9in /  1011.51hPa WSW 4.3mph /  7km/h 3.7mph /  6km/h 91% 0in /  0mm 67 W/m2
07:34 55.4 °F /  13 °C 51.8 °F /  11 °C 29.9in /  1011.55hPa W 3.7mph /  6km/h 3.1mph /  5km/h 91% 0in /  0mm 76 W/m2
07:39 55.4 °F /  13 °C 51.8 °F /  11 °C 29.9in /  1011.62hPa W 3.1mph /  5km/h 2.5mph /  4km/h 91% 0in /  0mm 81 W/m2
07:44 55.4 °F /  13 °C 51.8 °F /  11 °C 29.9in /  1011.58hPa SW 3.7mph /  6km/h 1.9mph /  3km/h 92% 0in /  0mm 84 W/m2
07:49 55.4 °F /  13 °C 51.8 °F /  11 °C 29.9in /  1011.58hPa SSW 5mph /  8km/h 5.6mph /  9km/h 92% 0in /  0mm 86 W/m2
07:54 55.4 °F /  13 °C 51.8 °F /  11 °C 29.9in /  1011.62hPa SW 3.7mph /  6km/h 3.7mph /  6km/h 92% 0in /  0mm 90 W/m2
07:59 55.4 °F /  13 °C 53.6 °F /  12 °C 29.9in /  1011.58hPa SW 5mph /  8km/h 3.7mph /  6km/h 92% 0in /  0mm 97 W/m2
08:04 55.4 °F /  13 °C 53.6 °F /  12 °C 29.9in /  1011.62hPa SW 3.7mph /  6km/h 3.7mph /  6km/h 92% 0in /  0mm 104 W/m2
08:09 55.4 °F /  13 °C 53.6 °F /  12 °C 29.9in /  1011.68hPa SSW 6.2mph /  10km/h 6.2mph /  10km/h 91% 0in /  0mm 105 W/m2
08:14 55.4 °F /  13 °C 51.8 °F /  11 °C 29.9in /  1011.68hPa SW 5.6mph /  9km/h 5mph /  8km/h 91% 0in /  0mm 116 W/m2
08:19 55.4 °F /  13 °C 53.6 °F /  12 °C 29.9in /  1011.72hPa SSW 5mph /  8km/h 4.3mph /  7km/h 91% 0in /  0mm 123 W/m2
08:24 55.4 °F /  13 °C 53.6 °F /  12 °C 29.9in /  1011.68hPa SW 6.8mph /  11km/h 5.6mph /  9km/h 91% 0in /  0mm 128 W/m2
08:29 55.4 °F /  13 °C 53.6 °F /  12 °C 29.9in /  1011.72hPa SW 8.1mph /  13km/h 6.2mph /  10km/h 90% 0in /  0mm 130 W/m2
08:34 55.4 °F /  13 °C 53.6 °F /  12 °C 29.9in /  1011.75hPa WSW 5mph /  8km/h 3.7mph /  6km/h 90% 0in /  0mm 128 W/m2
08:39 55.4 °F /  13 °C 53.6 °F /  12 °C 29.9in /  1011.79hPa SW 8.1mph /  13km/h 6.2mph /  10km/h 89% 0in /  0mm 120 W/m2
08:44 55.4 °F /  13 °C 51.8 °F /  11 °C 29.9in /  1011.79hPa SW 7.5mph /  12km/h 5.6mph /  9km/h 89% 0in /  0mm 107 W/m2
08:49 55.4 °F /  13 °C 53.6 °F /  12 °C 29.9in /  1011.85hPa SW 5.6mph /  9km/h 4.3mph /  7km/h 89% 0in /  0mm 113 W/m2
08:54 55.4 °F /  13 °C 53.6 °F /  12 °C 29.9in /  1011.92hPa WSW 6.2mph /  10km/h 4.3mph /  7km/h 89% 0in /  0mm 123 W/m2
08:59 55.4 °F /  13 °C 53.6 °F /  12 °C 29.9in /  1011.95hPa SW 6.2mph /  10km/h 4.3mph /  7km/h 89% 0in /  0mm 149 W/m2
09:04 55.4 °F /  13 °C 53.6 °F /  12 °C 29.9in /  1011.99hPa WSW 8.1mph /  13km/h 4.3mph /  7km/h 89% 0in /  0mm 172 W/m2
09:09 55.4 °F /  13 °C 53.6 °F /  12 °C 29.9in /  1012.06hPa SSE 5mph /  8km/h 3.1mph /  5km/h 89% 0in /  0mm 193 W/m2
09:14 57.2 °F /  14 °C 53.6 °F /  12 °C 29.9in /  1012.09hPa WNW 6.8mph /  11km/h 5mph /  8km/h 88% 0in /  0mm 204 W/m2
09:19 57.2 °F /  14 °C 53.6 °F /  12 °C 29.9in /  1012.02hPa SW 5.6mph /  9km/h 5mph /  8km/h 88% 0in /  0mm 213 W/m2
09:24 57.2 °F /  14 °C 53.6 °F /  12 °C 29.9in /  1012.06hPa WSW 6.8mph /  11km/h 4.3mph /  7km/h 87% 0in /  0mm 225 W/m2
09:29 57.2 °F /  14 °C 53.6 °F /  12 °C 29.9in /  1012.06hPa SSW 6.2mph /  10km/h 3.7mph /  6km/h 88% 0in /  0mm 244 W/m2
09:34 57.2 °F /  14 °C 53.6 °F /  12 °C 29.9in /  1012.06hPa WSW 5mph /  8km/h 4.3mph /  7km/h 88% 0in /  0mm 276 W/m2
09:39 57.2 °F /  14 °C 53.6 °F /  12 °C 29.9in /  1012.12hPa WSW 7.5mph /  12km/h 4.3mph /  7km/h 87% 0in /  0mm 309 W/m2
09:44 57.2 °F /  14 °C 53.6 °F /  12 °C 29.9in /  1012.16hPa SW 6.8mph /  11km/h 5.6mph /  9km/h 87% 0in /  0mm 339 W/m2
09:49 57.2 °F /  14 °C 53.6 °F /  12 °C 29.9in /  1012.19hPa SW 8.7mph /  14km/h 6.2mph /  10km/h 86% 0in /  0mm 380 W/m2
09:54 57.2 °F /  14 °C 53.6 °F /  12 °C 29.9in /  1012.23hPa WSW 5.6mph /  9km/h 4.3mph /  7km/h 86% 0in /  0mm 438 W/m2
09:59 59 °F /  15 °C 53.6 °F /  12 °C 29.9in /  1012.26hPa SW 8.1mph /  13km/h 6.2mph /  10km/h 85% 0in /  0mm 438 W/m2
10:04 59 °F /  15 °C 53.6 °F /  12 °C 29.9in /  1012.23hPa SW 9.9mph /  16km/h 6.8mph /  11km/h 85% 0in /  0mm 490 W/m2
10:09 59 °F /  15 °C 53.6 °F /  12 °C 29.9in /  1012.23hPa SSW 6.8mph /  11km/h 5.6mph /  9km/h 85% 0in /  0mm 490 W/m2
10:14 59 °F /  15 °C 53.6 °F /  12 °C 29.9in /  1012.29hPa WSW 7.5mph /  12km/h 5mph /  8km/h 84% 0in /  0mm 515 W/m2
10:19 59 °F /  15 °C 53.6 °F /  12 °C 29.9in /  1012.33hPa SW 9.9mph /  16km/h 6.2mph /  10km/h 84% 0in /  0mm 515 W/m2
10:24 59 °F /  15 °C 53.6 °F /  12 °C 29.9in /  1012.36hPa WSW 9.9mph /  16km/h 8.1mph /  13km/h 83% 0in /  0mm 475 W/m2
10:29 59 °F /  15 °C 53.6 °F /  12 °C 29.9in /  1012.46hPa SW 8.1mph /  13km/h 5mph /  8km/h 83% 0in /  0mm 394 W/m2
10:34 59 °F /  15 °C 53.6 °F /  12 °C 29.9in /  1012.43hPa SW 8.7mph /  14km/h 6.8mph /  11km/h 82% 0in /  0mm 378 W/m2
10:39 59 °F /  15 °C 53.6 °F /  12 °C 29.9in /  1012.46hPa SW 8.1mph /  13km/h 6.8mph /  11km/h 82% 0in /  0mm 327 W/m2
10:44 59 °F /  15 °C 53.6 °F /  12 °C 29.9in /  1012.43hPa SW 7.5mph /  12km/h 6.2mph /  10km/h 82% 0in /  0mm 267 W/m2
10:49 59 °F /  15 °C 53.6 °F /  12 °C 29.9in /  1012.36hPa SW 6.2mph /  10km/h 5mph /  8km/h 82% 0in /  0mm 276 W/m2
10:54 59 °F /  15 °C 53.6 °F /  12 °C 29.9in /  1012.39hPa WSW 7.5mph /  12km/h 5mph /  8km/h 82% 0in /  0mm 302 W/m2
10:59 59 °F /  15 °C 53.6 °F /  12 °C 29.9in /  1012.46hPa WSW 7.5mph /  12km/h 5.6mph /  9km/h 82% 0in /  0mm 304 W/m2
11:04 59 °F /  15 °C 53.6 °F /  12 °C 29.9in /  1012.5hPa WSW 6.8mph /  11km/h 3.7mph /  6km/h 81% 0in /  0mm 343 W/m2
11:09 59 °F /  15 °C 53.6 °F /  12 °C 29.9in /  1012.5hPa WSW 8.7mph /  14km/h 5.6mph /  9km/h 81% 0in /  0mm 362 W/m2
11:14 59 °F /  15 °C 53.6 °F /  12 °C 29.9in /  1012.5hPa SW 9.9mph /  16km/h 7.5mph /  12km/h 80% 0in /  0mm 394 W/m2
11:19 59 °F /  15 °C 53.6 °F /  12 °C 29.9in /  1012.39hPa SW 6.2mph /  10km/h 5mph /  8km/h 80% 0in /  0mm 411 W/m2
11:24 59 °F /  15 °C 53.6 °F /  12 °C 29.9in /  1012.39hPa SW 9.9mph /  16km/h 7.5mph /  12km/h 79% 0in /  0mm 424 W/m2
11:29 60.8 °F /  16 °C 53.6 °F /  12 °C 29.9in /  1012.43hPa W 10.6mph /  17km/h 7.5mph /  12km/h 79% 0in /  0mm 496 W/m2
11:34 60.8 °F /  16 °C 53.6 °F /  12 °C 29.9in /  1012.43hPa WSW 10.6mph /  17km/h 6.8mph /  11km/h 79% 0in /  0mm 564 W/m2
11:39 60.8 °F /  16 °C 53.6 °F /  12 °C 29.9in /  1012.46hPa WSW 11.2mph /  18km/h 8.1mph /  13km/h 78% 0in /  0mm 594 W/m2
11:44 60.8 °F /  16 °C 53.6 °F /  12 °C 29.9in /  1012.46hPa SW 9.9mph /  16km/h 5.6mph /  9km/h 78% 0in /  0mm 545 W/m2
11:49 60.8 °F /  16 °C 53.6 °F /  12 °C 29.9in /  1012.5hPa SSW 8.1mph /  13km/h 5.6mph /  9km/h 78% 0in /  0mm 411 W/m2
11:54 60.8 °F /  16 °C 53.6 °F /  12 °C 29.9in /  1012.56hPa SW 8.1mph /  13km/h 5.6mph /  9km/h 78% 0in /  0mm 411 W/m2
11:59 60.8 °F /  16 °C 53.6 °F /  12 °C 29.9in /  1012.67hPa SSW 9.9mph /  16km/h 8.1mph /  13km/h 78% 0in /  0mm 448 W/m2
12:04 60.8 °F /  16 °C 53.6 °F /  12 °C 29.9in /  1012.77hPa WSW 8.1mph /  13km/h 5.6mph /  9km/h 78% 0in /  0mm 438 W/m2
12:09 60.8 °F /  16 °C 53.6 °F /  12 °C 29.9in /  1012.84hPa WSW 11.2mph /  18km/h 9.9mph /  16km/h 78% 0in /  0mm 503 W/m2
12:14 60.8 °F /  16 °C 53.6 °F /  12 °C 29.9in /  1012.84hPa SW 9.9mph /  16km/h 6.8mph /  11km/h 78% 0in /  0mm 424 W/m2
12:19 60.8 °F /  16 °C 53.6 °F /  12 °C 29.9in /  1012.84hPa WSW 7.5mph /  12km/h 4.3mph /  7km/h 78% 0in /  0mm 469 W/m2
12:24 60.8 °F /  16 °C 53.6 °F /  12 °C 29.9in /  1012.8hPa SW 9.3mph /  15km/h 6.2mph /  10km/h 77% 0in /  0mm 610 W/m2
12:29 60.8 °F /  16 °C 53.6 °F /  12 °C 29.9in /  1012.77hPa SSW 9.3mph /  15km/h 6.8mph /  11km/h 77% 0in /  0mm 598 W/m2
12:34 60.8 °F /  16 °C 53.6 °F /  12 °C 29.9in /  1012.73hPa SW 9.9mph /  16km/h 7.5mph /  12km/h 78% 0in /  0mm 439 W/m2
12:39 60.8 °F /  16 °C 53.6 °F /  12 °C 29.9in /  1012.77hPa SW 10.6mph /  17km/h 8.7mph /  14km/h 78% 0in /  0mm 506 W/m2
12:44 60.8 °F /  16 °C 53.6 °F /  12 °C 29.9in /  1012.7hPa SSW 6.2mph /  10km/h 4.3mph /  7km/h 79% 0in /  0mm 457 W/m2
12:49 60.8 °F /  16 °C 53.6 °F /  12 °C 29.9in /  1012.73hPa WSW 9.3mph /  15km/h 8.1mph /  13km/h 78% 0in /  0mm 450 W/m2
12:54 60.8 °F /  16 °C 53.6 °F /  12 °C 29.9in /  1012.77hPa SW 8.7mph /  14km/h 6.2mph /  10km/h 78% 0in /  0mm 420 W/m2
12:59 60.8 °F /  16 °C 53.6 °F /  12 °C 29.9in /  1012.84hPa WSW 6.8mph /  11km/h 5mph /  8km/h 78% 0in /  0mm 418 W/m2
13:04 60.8 °F /  16 °C 55.4 °F /  13 °C 29.9in /  1012.84hPa SSW 7.5mph /  12km/h 5mph /  8km/h 78% 0in /  0mm 424 W/m2
13:09 60.8 °F /  16 °C 53.6 °F /  12 °C 29.9in /  1012.87hPa WNW 9.3mph /  15km/h 5.6mph /  9km/h 78% 0in /  0mm 399 W/m2
13:14 60.8 °F /  16 °C 53.6 °F /  12 °C 29.9in /  1012.9hPa WSW 9.3mph /  15km/h 8.7mph /  14km/h 78% 0in /  0mm 348 W/m2
13:19 60.8 °F /  16 °C 53.6 °F /  12 °C 29.9in /  1012.87hPa WSW 12.4mph /  20km/h 8.7mph /  14km/h 78% 0in /  0mm 350 W/m2
13:24 60.8 °F /  16 °C 53.6 °F /  12 °C 29.9in /  1012.87hPa W 10.6mph /  17km/h 6.8mph /  11km/h 78% 0in /  0mm 364 W/m2
13:29 60.8 °F /  16 °C 53.6 °F /  12 °C 29.9in /  1012.9hPa WSW 10.6mph /  17km/h 6.8mph /  11km/h 77% 0in /  0mm 364 W/m2
13:34 60.8 °F /  16 °C 53.6 °F /  12 °C 29.9in /  1012.9hPa W 8.1mph /  13km/h 6.2mph /  10km/h 77% 0in /  0mm 330 W/m2
13:39 60.8 °F /  16 °C 53.6 °F /  12 °C 29.9in /  1012.9hPa W 8.1mph /  13km/h 5.6mph /  9km/h 77% 0in /  0mm 352 W/m2
13:44 60.8 °F /  16 °C 53.6 °F /  12 °C 29.9in /  1012.9hPa WSW 8.1mph /  13km/h 5mph /  8km/h 77% 0in /  0mm 355 W/m2
13:49 60.8 °F /  16 °C 53.6 °F /  12 °C 29.9in /  1012.84hPa WSW 9.9mph /  16km/h 6.8mph /  11km/h 77% 0in /  0mm 381 W/m2
13:54 60.8 °F /  16 °C 53.6 °F /  12 °C 29.9in /  1012.87hPa W 8.1mph /  13km/h 7.5mph /  12km/h 77% 0in /  0mm 420 W/m2
13:59 60.8 °F /  16 °C 53.6 °F /  12 °C 29.9in /  1012.94hPa WSW 9.3mph /  15km/h 8.7mph /  14km/h 76% 0in /  0mm 418 W/m2
14:04 60.8 °F /  16 °C 53.6 °F /  12 °C 29.9in /  1012.94hPa WSW 7.5mph /  12km/h 5.6mph /  9km/h 76% 0in /  0mm 415 W/m2
14:09 60.8 °F /  16 °C 53.6 °F /  12 °C 29.9in /  1012.9hPa SSW 10.6mph /  17km/h 7.5mph /  12km/h 77% 0in /  0mm 403 W/m2
14:14 60.8 °F /  16 °C 53.6 °F /  12 °C 29.9in /  1012.87hPa SW 9.3mph /  15km/h 6.2mph /  10km/h 77% 0in /  0mm 364 W/m2
14:19 60.8 °F /  16 °C 53.6 °F /  12 °C 29.9in /  1012.87hPa WSW 8.1mph /  13km/h 6.2mph /  10km/h 77% 0in /  0mm 334 W/m2
14:24 60.8 °F /  16 °C 53.6 °F /  12 °C 29.9in /  1012.9hPa SW 8.1mph /  13km/h 5.6mph /  9km/h 78% 0in /  0mm 374 W/m2
14:29 60.8 °F /  16 °C 53.6 °F /  12 °C 29.9in /  1012.97hPa SSW 6.2mph /  10km/h 5mph /  8km/h 78% 0in /  0mm 401 W/m2
14:34 60.8 °F /  16 °C 53.6 °F /  12 °C 29.9in /  1013.04hPa SW 8.7mph /  14km/h 6.2mph /  10km/h 77% 0in /  0mm 425 W/m2
14:39 60.8 °F /  16 °C 53.6 °F /  12 °C 29.9in /  1013.04hPa SW 9.9mph /  16km/h 7.5mph /  12km/h 76% 0in /  0mm 434 W/m2
14:44 60.8 °F /  16 °C 53.6 °F /  12 °C 29.9in /  1013.04hPa WSW 8.1mph /  13km/h 6.2mph /  10km/h 76% 0in /  0mm 455 W/m2
14:49 62.6 °F /  17 °C 53.6 °F /  12 °C 29.9in /  1013hPa SW 8.7mph /  14km/h 5.6mph /  9km/h 76% 0in /  0mm 489 W/m2
14:54 62.6 °F /  17 °C 53.6 °F /  12 °C 29.9in /  1013.04hPa SW 8.1mph /  13km/h 5.6mph /  9km/h 76% 0in /  0mm 489 W/m2
14:59 62.6 °F /  17 °C 53.6 °F /  12 °C 29.9in /  1013.07hPa S 8.7mph /  14km/h 8.7mph /  14km/h 76% 0in /  0mm 424 W/m2
15:04 62.6 °F /  17 °C 55.4 °F /  13 °C 29.9in /  1013.14hPa WSW 9.3mph /  15km/h 8.1mph /  13km/h 76% 0in /  0mm 424 W/m2
15:09 62.6 °F /  17 °C 53.6 °F /  12 °C 29.9in /  1013.21hPa WNW 9.3mph /  15km/h 6.8mph /  11km/h 75% 0in /  0mm 392 W/m2
15:14 62.6 °F /  17 °C 53.6 °F /  12 °C 29.9in /  1013.24hPa W 10.6mph /  17km/h 8.1mph /  13km/h 74% 0in /  0mm 371 W/m2
15:19 62.6 °F /  17 °C 53.6 °F /  12 °C 29.9in /  1013.28hPa W 9.3mph /  15km/h 6.8mph /  11km/h 75% 0in /  0mm 387 W/m2
15:24 62.6 °F /  17 °C 53.6 °F /  12 °C 29.9in /  1013.31hPa WSW 9.9mph /  16km/h 6.8mph /  11km/h 74% 0in /  0mm 424 W/m2
15:29 62.6 °F /  17 °C 53.6 °F /  12 °C 29.9in /  1013.28hPa SW 10.6mph /  17km/h 8.1mph /  13km/h 74% 0in /  0mm 424 W/m2
15:34 62.6 °F /  17 °C 53.6 °F /  12 °C 29.9in /  1013.24hPa SW 11.8mph /  19km/h 8.1mph /  13km/h 74% 0in /  0mm 353 W/m2
15:39 62.6 °F /  17 °C 53.6 °F /  12 °C 29.9in /  1013.28hPa SSW 7.5mph /  12km/h 6.2mph /  10km/h 75% 0in /  0mm 425 W/m2
15:44 62.6 °F /  17 °C 53.6 °F /  12 °C 29.9in /  1013.21hPa SW 9.9mph /  16km/h 6.8mph /  11km/h 75% 0in /  0mm 468 W/m2
15:49 62.6 °F /  17 °C 53.6 °F /  12 °C 29.9in /  1013.21hPa SW 9.9mph /  16km/h 7.5mph /  12km/h 75% 0in /  0mm 468 W/m2
15:54 62.6 °F /  17 °C 53.6 °F /  12 °C 29.9in /  1013.21hPa SW 10.6mph /  17km/h 6.8mph /  11km/h 75% 0in /  0mm 431 W/m2
15:59 62.6 °F /  17 °C 53.6 °F /  12 °C 29.9in /  1013.24hPa SW 9.9mph /  16km/h 5.6mph /  9km/h 75% 0in /  0mm 383 W/m2
16:04 62.6 °F /  17 °C 53.6 °F /  12 °C 29.9in /  1013.21hPa SW 9.3mph /  15km/h 6.8mph /  11km/h 75% 0in /  0mm 399 W/m2
16:09 62.6 °F /  17 °C 53.6 °F /  12 °C 29.9in /  1013.21hPa SSW 8.1mph /  13km/h 6.2mph /  10km/h 75% 0in /  0mm 939 W/m2
16:14 62.6 °F /  17 °C 55.4 °F /  13 °C 29.9in /  1013.17hPa SW 10.6mph /  17km/h 6.8mph /  11km/h 74% 0in /  0mm 912 W/m2
16:19 62.6 °F /  17 °C 55.4 °F /  13 °C 29.9in /  1013.17hPa SW 6.2mph /  10km/h 5.6mph /  9km/h 73% 0in /  0mm 722 W/m2
16:24 62.6 °F /  17 °C 55.4 °F /  13 °C 29.9in /  1013.17hPa SW 8.7mph /  14km/h 6.8mph /  11km/h 72% 0in /  0mm 446 W/m2
16:29 62.6 °F /  17 °C 55.4 °F /  13 °C 29.9in /  1013.21hPa SW 8.1mph /  13km/h 8.1mph /  13km/h 73% 0in /  0mm 424 W/m2
16:34 62.6 °F /  17 °C 55.4 °F /  13 °C 29.9in /  1013.21hPa SW 11.2mph /  18km/h 7.5mph /  12km/h 74% 0in /  0mm 499 W/m2
16:39 62.6 °F /  17 °C 55.4 °F /  13 °C 29.9in /  1013.21hPa WSW 7.5mph /  12km/h 6.2mph /  10km/h 74% 0in /  0mm 700 W/m2
16:44 62.6 °F /  17 °C 55.4 °F /  13 °C 29.9in /  1013.21hPa SSW 11.8mph /  19km/h 9.3mph /  15km/h 73% 0in /  0mm 752 W/m2
16:49 62.6 °F /  17 °C 53.6 °F /  12 °C 29.9in /  1013.21hPa SW 12.4mph /  20km/h 10.6mph /  17km/h 73% 0in /  0mm 608 W/m2
16:54 62.6 °F /  17 °C 53.6 °F /  12 °C 29.9in /  1013.21hPa SSW 9.9mph /  16km/h 8.7mph /  14km/h 74% 0in /  0mm 599 W/m2
16:59 62.6 °F /  17 °C 55.4 °F /  13 °C 29.9in /  1013.17hPa SSW 11.2mph /  18km/h 9.9mph /  16km/h 74% 0in /  0mm 789 W/m2
17:04 62.6 °F /  17 °C 55.4 °F /  13 °C 29.9in /  1013.14hPa SW 9.9mph /  16km/h 7.5mph /  12km/h 74% 0in /  0mm 758 W/m2
17:09 64.4 °F /  18 °C 55.4 °F /  13 °C 29.9in /  1013.11hPa W 8.7mph /  14km/h 7.5mph /  12km/h 73% 0in /  0mm 642 W/m2
17:14 64.4 °F /  18 °C 53.6 °F /  12 °C 29.9in /  1013.14hPa WNW 11.2mph /  18km/h 8.7mph /  14km/h 69% 0in /  0mm 642 W/m2
17:19 64.4 °F /  18 °C 53.6 °F /  12 °C 29.9in /  1013.14hPa W 10.6mph /  17km/h 8.7mph /  14km/h 68% 0in /  0mm 635 W/m2
17:24 64.4 °F /  18 °C 53.6 °F /  12 °C 29.9in /  1013.11hPa W 12.4mph /  20km/h 9.3mph /  15km/h 67% 0in /  0mm 631 W/m2
17:29 66.2 °F /  19 °C 53.6 °F /  12 °C 29.9in /  1013.17hPa WNW 11.2mph /  18km/h 9.9mph /  16km/h 65% 0in /  0mm 617 W/m2
17:34 66.2 °F /  19 °C 53.6 °F /  12 °C 29.9in /  1013.11hPa WNW 11.8mph /  19km/h 8.7mph /  14km/h 64% 0in /  0mm 592 W/m2
17:39 66.2 °F /  19 °C 53.6 °F /  12 °C 29.9in /  1013.11hPa WNW 11.8mph /  19km/h 9.9mph /  16km/h 63% 0in /  0mm 578 W/m2
17:44 64.4 °F /  18 °C 53.6 °F /  12 °C 29.9in /  1013.17hPa WNW 10.6mph /  17km/h 9.3mph /  15km/h 64% 0in /  0mm 601 W/m2
17:49 64.4 °F /  18 °C 53.6 °F /  12 °C 29.9in /  1013.17hPa NW 13mph /  21km/h 11.8mph /  19km/h 64% 0in /  0mm 601 W/m2
17:54 64.4 °F /  18 °C 51.8 °F /  11 °C 29.9in /  1013.21hPa WNW 11.8mph /  19km/h 10.6mph /  17km/h 64% 0in /  0mm 578 W/m2
17:59 64.4 °F /  18 °C 53.6 °F /  12 °C 29.9in /  1013.24hPa NW 9.9mph /  16km/h 11.2mph /  18km/h 66% 0in /  0mm 570 W/m2
18:04 64.4 °F /  18 °C 51.8 °F /  11 °C 29.9in /  1013.31hPa WNW 18.6mph /  30km/h 15.5mph /  25km/h 64% 0in /  0mm 566 W/m2
18:09 64.4 °F /  18 °C 50 °F /  10 °C 29.9in /  1013.38hPa WNW 14.3mph /  23km/h 9.9mph /  16km/h 62% 0in /  0mm 538 W/m2
18:14 62.6 °F /  17 °C 50 °F /  10 °C 29.9in /  1013.34hPa WNW 9.9mph /  16km/h 8.1mph /  13km/h 64% 0in /  0mm 181 W/m2
18:19 62.6 °F /  17 °C 50 °F /  10 °C 29.9in /  1013.38hPa WNW 12.4mph /  20km/h 10.6mph /  17km/h 65% 0in /  0mm 188 W/m2
18:24 62.6 °F /  17 °C 51.8 °F /  11 °C 29.9in /  1013.34hPa WNW 12.4mph /  20km/h 9.3mph /  15km/h 65% 0in /  0mm 596 W/m2
18:29 64.4 °F /  18 °C 51.8 °F /  11 °C 29.9in /  1013.38hPa WNW 13.7mph /  22km/h 9.9mph /  16km/h 63% 0in /  0mm 529 W/m2
18:34 64.4 °F /  18 °C 51.8 °F /  11 °C 29.9in /  1013.38hPa WNW 16.2mph /  26km/h 12.4mph /  20km/h 63% 0in /  0mm 462 W/m2
18:39 62.6 °F /  17 °C 51.8 °F /  11 °C 29.9in /  1013.44hPa W 10.6mph /  17km/h 8.7mph /  14km/h 65% 0in /  0mm 181 W/m2
18:44 62.6 °F /  17 °C 51.8 °F /  11 °C 29.9in /  1013.48hPa WNW 12.4mph /  20km/h 9.3mph /  15km/h 66% 0in /  0mm 494 W/m2
18:49 62.6 °F /  17 °C 51.8 °F /  11 °C 29.9in /  1013.44hPa WNW 8.7mph /  14km/h 6.8mph /  11km/h 66% 0in /  0mm 494 W/m2
18:54 64.4 °F /  18 °C 51.8 °F /  11 °C 29.9in /  1013.41hPa W 8.7mph /  14km/h 5.6mph /  9km/h 66% 0in /  0mm 403 W/m2
18:59 64.4 °F /  18 °C 51.8 °F /  11 °C 29.9in /  1013.44hPa W 8.1mph /  13km/h 6.8mph /  11km/h 65% 0in /  0mm 371 W/m2
19:04 64.4 °F /  18 °C 51.8 °F /  11 °C 29.9in /  1013.44hPa WNW 10.6mph /  17km/h 9.3mph /  15km/h 64% 0in /  0mm 357 W/m2
19:09 62.6 °F /  17 °C 50 °F /  10 °C 29.9in /  1013.44hPa W 13mph /  21km/h 9.3mph /  15km/h 63% 0in /  0mm 350 W/m2
19:14 62.6 °F /  17 °C 50 °F /  10 °C 29.9in /  1013.48hPa WNW 13mph /  21km/h 9.3mph /  15km/h 64% 0in /  0mm 65 W/m2
19:19 60.8 °F /  16 °C 50 °F /  10 °C 29.9in /  1013.51hPa WNW 11.2mph /  18km/h 8.7mph /  14km/h 66% 0in /  0mm 91 W/m2
19:24 60.8 °F /  16 °C 50 °F /  10 °C 29.9in /  1013.58hPa WNW 9.9mph /  16km/h 7.5mph /  12km/h 67% 0in /  0mm 98 W/m2
19:29 60.8 °F /  16 °C 50 °F /  10 °C 29.9in /  1013.55hPa WNW 9.9mph /  16km/h 7.5mph /  12km/h 68% 0in /  0mm 81 W/m2
19:34 60.8 °F /  16 °C 50 °F /  10 °C 29.9in /  1013.55hPa WNW 9.9mph /  16km/h 8.7mph /  14km/h 68% 0in /  0mm 104 W/m2
19:39 60.8 °F /  16 °C 50 °F /  10 °C 29.9in /  1013.58hPa W 8.1mph /  13km/h 6.2mph /  10km/h 68% 0in /  0mm 127 W/m2
19:44 60.8 °F /  16 °C 50 °F /  10 °C 29.9in /  1013.58hPa W 10.6mph /  17km/h 6.2mph /  10km/h 68% 0in /  0mm 378 W/m2
19:49 62.6 °F /  17 °C 51.8 °F /  11 °C 29.9in /  1013.55hPa WNW 8.7mph /  14km/h 7.5mph /  12km/h 68% 0in /  0mm 378 W/m2
19:54 62.6 °F /  17 °C 51.8 °F /  11 °C 29.9in /  1013.48hPa W 6.2mph /  10km/h 5mph /  8km/h 67% 0in /  0mm 362 W/m2
Compliments of Weather Underground - 2 mb